Time;durP1;ratioP1;P1;durP2;ratioP2;P2;SDS_P1;SDS_P2;PMS_P1;PMS_P2;Temp;Humidity;BMP_temperature;BMP_pressure;BME280_temperature;BME280_humidity;BME280_pressure;Samples;Min_cycle;Max_cycle;Signal;HPM_P1;HPM_P2
2021/01/20 00:02:11;;;;;;;7.87;5.43;;;;;;;;;;5059689;28;20453;-69
2021/01/20 00:04:38;;;;;;;9.63;6.33;;;;;;;;;;5064877;28;20515;-70
2021/01/20 00:07:04;;;;;;;6.47;4.80;;;;;;;;;;5059707;28;21138;-70
2021/01/20 00:09:31;;;;;;;10.27;5.93;;;;;;;;;;5053090;28;20551;-70
2021/01/20 00:11:58;;;;;;;9.33;5.80;;;;;;;;;;5052857;28;20441;-70
2021/01/20 00:14:25;;;;;;;7.57;6.10;;;;;;;;;;5058123;28;20456;-70
2021/01/20 00:16:51;;;;;;;9.80;5.77;;;;;;;;;;5055395;28;20458;-71
2021/01/20 00:19:18;;;;;;;8.37;6.00;;;;;;;;;;5059941;28;20953;-69
2021/01/20 00:21:45;;;;;;;5.13;4.07;;;;;;;;;;5062294;28;20482;-69
2021/01/20 00:24:11;;;;;;;11.50;4.90;;;;;;;;;;5052733;28;20466;-69
2021/01/20 00:26:38;;;;;;;7.17;6.40;;;;;;;;;;5058306;28;20471;-69
2021/01/20 00:29:05;;;;;;;10.70;6.17;;;;;;;;;;5062813;28;20473;-69
2021/01/20 00:31:32;;;;;;;7.27;5.50;;;;;;;;;;5054278;28;20470;-70
2021/01/20 00:33:58;;;;;;;7.77;5.37;;;;;;;;;;5056130;28;20469;-69
2021/01/20 00:36:25;;;;;;;6.37;5.00;;;;;;;;;;5049603;28;20461;-70
2021/01/20 00:38:52;;;;;;;7.43;5.60;;;;;;;;;;5058583;28;20447;-69
2021/01/20 00:41:18;;;;;;;7.67;5.40;;;;;;;;;;5057718;28;20932;-70
2021/01/20 00:43:45;;;;;;;7.40;6.20;;;;;;;;;;5061906;28;20502;-69
2021/01/20 00:46:12;;;;;;;6.83;5.30;;;;;;;;;;5060970;28;20446;-69
2021/01/20 00:48:39;;;;;;;9.07;5.80;;;;;;;;;;5053064;28;20460;-69
2021/01/20 00:51:05;;;;;;;9.73;5.53;;;;;;;;;;5061732;28;20493;-69
2021/01/20 00:53:32;;;;;;;7.87;5.43;;;;;;;;;;5060442;28;20460;-69
2021/01/20 00:55:59;;;;;;;9.80;6.20;;;;;;;;;;5061686;28;20484;-70
2021/01/20 00:58:25;;;;;;;7.47;5.60;;;;;;;;;;5056480;28;20452;-69
2021/01/20 01:00:52;;;;;;;9.97;6.60;;;;;;;;;;5052026;28;20476;-69
2021/01/20 01:03:19;;;;;;;7.13;5.07;;;;;;;;;;5056335;28;20458;-69
2021/01/20 01:05:46;;;;;;;8.47;5.67;;;;;;;;;;5055731;28;21166;-69
2021/01/20 01:08:12;;;;;;;5.30;4.37;;;;;;;;;;5053644;28;20489;-69
2021/01/20 01:10:39;;;;;;;6.73;5.40;;;;;;;;;;5057436;28;21006;-69
2021/01/20 01:13:06;;;;;;;9.30;5.97;;;;;;;;;;5059091;28;20456;-69
2021/01/20 01:15:32;;;;;;;7.97;5.57;;;;;;;;;;5061056;28;20441;-70
2021/01/20 01:17:59;;;;;;;8.13;5.47;;;;;;;;;;5053787;28;20465;-70
2021/01/20 01:20:26;;;;;;;7.67;5.13;;;;;;;;;;5055895;28;20473;-70
2021/01/20 01:22:57;;;;;;;7.97;5.50;;;;;;;;;;5053362;28;20980;-71
2021/01/20 01:25:23;;;;;;;7.93;4.97;;;;;;;;;;5047646;28;20458;-69
2021/01/20 01:27:50;;;;;;;8.07;5.57;;;;;;;;;;5055368;28;20512;-69
2021/01/20 01:30:17;;;;;;;10.80;4.57;;;;;;;;;;5053899;28;20477;-69
2021/01/20 01:32:44;;;;;;;5.30;4.63;;;;;;;;;;5056191;28;20464;-69
2021/01/20 01:35:11;;;;;;;8.50;6.73;;;;;;;;;;5062905;28;20457;-69
2021/01/20 01:37:38;;;;;;;7.60;5.03;;;;;;;;;;5049383;28;20465;-69
2021/01/20 01:40:06;;;;;;;8.70;6.00;;;;;;;;;;5052289;28;20480;-69
2021/01/20 01:42:32;;;;;;;5.83;4.67;;;;;;;;;;5056758;28;20525;-69
2021/01/20 01:44:59;;;;;;;9.53;5.77;;;;;;;;;;5054193;28;20453;-69
2021/01/20 01:47:26;;;;;;;7.13;5.00;;;;;;;;;;5054640;28;20834;-68
2021/01/20 01:49:56;;;;;;;7.97;6.10;;;;;;;;;;5063572;28;20490;-68
2021/01/20 01:52:22;;;;;;;12.63;5.10;;;;;;;;;;5052933;28;20453;-69
2021/01/20 01:54:53;;;;;;;7.70;6.10;;;;;;;;;;5053653;28;20457;-69
2021/01/20 01:57:20;;;;;;;8.03;5.57;;;;;;;;;;5048528;28;20860;-69
2021/01/20 01:59:46;;;;;;;7.23;4.83;;;;;;;;;;5056144;28;20467;-69
2021/01/20 02:02:13;;;;;;;8.97;6.17;;;;;;;;;;5058261;28;20449;-69
2021/01/20 02:04:39;;;;;;;7.97;5.47;;;;;;;;;;5060412;28;20479;-68
2021/01/20 02:07:06;;;;;;;7.50;5.50;;;;;;;;;;5064484;28;20449;-68
2021/01/20 02:09:34;;;;;;;7.60;5.03;;;;;;;;;;5054661;28;21161;-69
2021/01/20 02:12:16;;;;;;;10.63;5.80;;;;;;;;;;5058422;28;20442;-68
2021/01/20 02:14:48;;;;;;;7.70;4.87;;;;;;;;;;5056242;28;20469;-69
2021/01/20 02:17:17;;;;;;;6.60;4.80;;;;;;;;;;5055824;28;20810;-70
2021/01/20 02:20:02;;;;;;;7.70;5.07;;;;;;;;;;5062946;28;20498;-70
2021/01/20 02:22:32;;;;;;;6.97;5.27;;;;;;;;;;5052939;28;20965;-69
2021/01/20 02:25:13;;;;;;;9.03;5.97;;;;;;;;;;5055002;28;20523;-69
2021/01/20 02:27:45;;;;;;;9.73;3.50;;;;;;;;;;5058220;28;20448;-69
2021/01/20 02:30:13;;;;;;;5.73;4.10;;;;;;;;;;5066490;28;20484;-69
2021/01/20 02:32:41;;;;;;;7.23;5.37;;;;;;;;;;5056486;28;20465;-69
2021/01/20 02:35:09;;;;;;;5.90;4.53;;;;;;;;;;5053125;28;20854;-70
2021/01/20 02:37:37;;;;;;;7.13;4.50;;;;;;;;;;5053421;28;20453;-70
2021/01/20 02:40:04;;;;;;;6.93;5.70;;;;;;;;;;5055443;28;20535;-70
2021/01/20 02:42:31;;;;;;;7.20;4.77;;;;;;;;;;5055244;28;20962;-70
2021/01/20 02:44:58;;;;;;;8.80;5.50;;;;;;;;;;5059217;28;20446;-69
2021/01/20 02:47:25;;;;;;;8.53;6.53;;;;;;;;;;5055147;28;20453;-69
2021/01/20 02:49:54;;;;;;;7.77;5.97;;;;;;;;;;5057850;28;20486;-69
2021/01/20 02:52:26;;;;;;;6.67;5.30;;;;;;;;;;5056188;28;20544;-69
2021/01/20 02:54:54;;;;;;;7.00;5.13;;;;;;;;;;5059428;28;20551;-70
2021/01/20 02:57:20;;;;;;;6.03;5.43;;;;;;;;;;5050963;28;20453;-69
2021/01/20 02:59:48;;;;;;;5.83;4.80;;;;;;;;;;5059632;28;20455;-69
2021/01/20 03:02:17;;;;;;;7.10;5.20;;;;;;;;;;5052172;28;20476;-69
2021/01/20 03:04:47;;;;;;;7.70;5.90;;;;;;;;;;5050974;28;20461;-70
2021/01/20 03:07:14;;;;;;;7.97;5.60;;;;;;;;;;5054069;28;21022;-70
2021/01/20 03:09:41;;;;;;;6.93;5.23;;;;;;;;;;5056724;28;20981;-69
2021/01/20 03:12:08;;;;;;;11.03;7.53;;;;;;;;;;5063470;28;20449;-71
2021/01/20 03:14:35;;;;;;;7.83;6.27;;;;;;;;;;5052359;28;20472;-70
2021/01/20 03:17:02;;;;;;;7.87;5.77;;;;;;;;;;5055336;28;20468;-71
2021/01/20 03:19:28;;;;;;;10.70;6.83;;;;;;;;;;5059359;28;20453;-69
2021/01/20 03:21:56;;;;;;;6.40;5.57;;;;;;;;;;5055292;28;20465;-69
2021/01/20 03:24:22;;;;;;;7.20;5.73;;;;;;;;;;5062655;28;20476;-70
2021/01/20 03:26:49;;;;;;;8.93;6.00;;;;;;;;;;5058530;28;20453;-69
2021/01/20 03:29:15;;;;;;;7.47;6.17;;;;;;;;;;5057404;28;20492;-70
2021/01/20 03:31:42;;;;;;;8.60;5.97;;;;;;;;;;5053197;28;20485;-70
2021/01/20 03:34:09;;;;;;;10.13;6.83;;;;;;;;;;5056232;28;20972;-69
2021/01/20 03:36:35;;;;;;;7.90;6.40;;;;;;;;;;5054336;28;20452;-70
2021/01/20 03:39:04;;;;;;;7.50;5.73;;;;;;;;;;5048412;28;21006;-70
2021/01/20 03:41:30;;;;;;;8.80;6.30;;;;;;;;;;5062992;28;20465;-70
2021/01/20 03:43:57;;;;;;;9.00;6.93;;;;;;;;;;5063985;28;20814;-69
2021/01/20 03:46:23;;;;;;;6.00;5.13;;;;;;;;;;5065463;28;20479;-70
2021/01/20 03:48:50;;;;;;;10.07;7.20;;;;;;;;;;5054543;28;20453;-70
2021/01/20 03:51:17;;;;;;;6.77;5.40;;;;;;;;;;5054339;28;20477;-70
2021/01/20 03:53:43;;;;;;;8.83;5.90;;;;;;;;;;5057490;28;20454;-69
2021/01/20 03:56:11;;;;;;;10.00;6.50;;;;;;;;;;5055891;28;20448;-70
2021/01/20 03:58:37;;;;;;;9.87;5.50;;;;;;;;;;5057120;28;20449;-69
2021/01/20 04:01:04;;;;;;;9.03;5.23;;;;;;;;;;5051753;28;20481;-71
2021/01/20 04:03:30;;;;;;;9.53;7.00;;;;;;;;;;5059698;28;20446;-70
2021/01/20 04:05:57;;;;;;;9.03;5.50;;;;;;;;;;5062113;28;20475;-70
2021/01/20 04:08:23;;;;;;;8.13;6.17;;;;;;;;;;5057861;28;20515;-70
2021/01/20 04:10:50;;;;;;;6.20;5.20;;;;;;;;;;5054398;28;20481;-70
2021/01/20 04:13:17;;;;;;;9.80;5.37;;;;;;;;;;5056195;28;20826;-69
2021/01/20 04:15:44;;;;;;;7.10;5.30;;;;;;;;;;5054826;28;20453;-71
2021/01/20 04:18:10;;;;;;;7.33;5.20;;;;;;;;;;5060788;28;20468;-69
2021/01/20 04:20:37;;;;;;;11.60;6.77;;;;;;;;;;5055330;28;20474;-70
2021/01/20 04:23:04;;;;;;;7.57;5.27;;;;;;;;;;5051016;28;20458;-71
2021/01/20 04:25:30;;;;;;;10.03;6.63;;;;;;;;;;5060333;28;20445;-70
2021/01/20 04:27:57;;;;;;;10.37;5.90;;;;;;;;;;5057972;28;20495;-70
2021/01/20 04:30:24;;;;;;;7.63;5.60;;;;;;;;;;5055867;28;20480;-70
2021/01/20 04:32:51;;;;;;;8.03;6.30;;;;;;;;;;5051762;28;20476;-70
2021/01/20 04:35:18;;;;;;;8.83;6.20;;;;;;;;;;5050921;28;20442;-70
2021/01/20 04:37:44;;;;;;;10.53;5.37;;;;;;;;;;5060197;28;20454;-70
2021/01/20 04:40:11;;;;;;;7.87;5.60;;;;;;;;;;5050007;28;20466;-70
2021/01/20 04:42:38;;;;;;;6.83;4.60;;;;;;;;;;5059927;28;20464;-70
2021/01/20 04:45:06;;;;;;;6.70;6.00;;;;;;;;;;5059632;28;20446;-70
2021/01/20 04:47:33;;;;;;;6.23;5.43;;;;;;;;;;5058874;28;20484;-70
2021/01/20 04:50:00;;;;;;;11.77;5.90;;;;;;;;;;5052372;28;20562;-70
2021/01/20 04:52:28;;;;;;;13.07;6.20;;;;;;;;;;5050224;28;20457;-70
2021/01/20 04:54:54;;;;;;;10.87;6.37;;;;;;;;;;5057079;28;20531;-71
2021/01/20 04:57:21;;;;;;;8.70;6.63;;;;;;;;;;5053751;28;20449;-70
2021/01/20 04:59:49;;;;;;;10.57;8.03;;;;;;;;;;5050654;28;21069;-70
2021/01/20 05:02:16;;;;;;;14.93;9.17;;;;;;;;;;5056083;28;20502;-70
2021/01/20 05:04:44;;;;;;;13.00;8.97;;;;;;;;;;5050034;28;20446;-71
2021/01/20 05:09:36;;;;;;;16.47;9.80;;;;;;;;;;5118400;22;20494;-78
2021/01/20 05:12:03;;;;;;;13.40;10.87;;;;;;;;;;5100853;28;20205;-78
2021/01/20 05:14:30;;;;;;;15.77;10.40;;;;;;;;;;5105277;28;20460;-78
2021/01/20 05:17:06;;;;;;;13.70;9.43;;;;;;;;;;5107615;28;20448;-78
2021/01/20 05:19:36;;;;;;;15.10;10.77;;;;;;;;;;5083234;28;20448;-78
2021/01/20 05:22:05;;;;;;;18.90;11.60;;;;;;;;;;5082271;28;20441;-78
2021/01/20 05:24:32;;;;;;;15.00;9.77;;;;;;;;;;5085898;28;20460;-78
2021/01/20 05:26:59;;;;;;;13.50;10.30;;;;;;;;;;5082362;28;20971;-78
2021/01/20 05:29:26;;;;;;;15.60;10.43;;;;;;;;;;5085562;28;20484;-77
2021/01/20 05:31:52;;;;;;;18.07;12.13;;;;;;;;;;5083580;28;20460;-78
2021/01/20 05:34:22;;;;;;;14.17;9.93;;;;;;;;;;5083706;28;20878;-78
2021/01/20 05:37:00;;;;;;;15.30;11.43;;;;;;;;;;5085437;28;20464;-77
2021/01/20 05:39:28;;;;;;;17.70;12.33;;;;;;;;;;5092452;28;20471;-79
2021/01/20 05:42:00;;;;;;;17.87;12.00;;;;;;;;;;5081274;28;20537;-80
2021/01/20 05:44:26;;;;;;;16.93;12.60;;;;;;;;;;5100985;28;21031;-82
2021/01/20 05:46:53;;;;;;;16.13;11.10;;;;;;;;;;5098803;28;20515;-81
2021/01/20 05:49:23;;;;;;;17.43;12.70;;;;;;;;;;5100304;28;20475;-83
2021/01/20 05:51:50;;;;;;;16.40;11.40;;;;;;;;;;5089766;28;20452;-82
2021/01/20 05:54:29;;;;;;;18.30;13.00;;;;;;;;;;5089270;28;20464;-78
2021/01/20 05:57:09;;;;;;;23.93;13.83;;;;;;;;;;5085981;28;20463;-78
2021/01/20 05:59:36;;;;;;;16.37;12.20;;;;;;;;;;5081747;28;20454;-78
2021/01/20 06:02:02;;;;;;;16.90;11.90;;;;;;;;;;5085187;28;20489;-78
2021/01/20 06:04:30;;;;;;;21.63;11.90;;;;;;;;;;5088044;28;20450;-78
2021/01/20 06:06:57;;;;;;;20.53;12.30;;;;;;;;;;5086862;28;20494;-78
2021/01/20 06:09:25;;;;;;;14.80;10.77;;;;;;;;;;5085194;28;20493;-78
2021/01/20 06:11:52;;;;;;;17.80;11.40;;;;;;;;;;5088439;28;20456;-78
2021/01/20 06:14:19;;;;;;;17.10;11.40;;;;;;;;;;5086652;28;20452;-83
2021/01/20 06:16:50;;;;;;;15.93;11.80;;;;;;;;;;5086389;28;20458;-82
2021/01/20 06:19:20;;;;;;;15.80;11.07;;;;;;;;;;5087444;28;20475;-80
2021/01/20 06:21:47;;;;;;;17.57;13.17;;;;;;;;;;5084434;28;20455;-80
2021/01/20 06:24:15;;;;;;;16.57;12.57;;;;;;;;;;5081228;28;20819;-79
2021/01/20 06:26:44;;;;;;;15.60;10.57;;;;;;;;;;5087422;28;20448;-78
2021/01/20 06:29:12;;;;;;;21.10;11.30;;;;;;;;;;5084260;28;20507;-79
2021/01/20 06:31:42;;;;;;;15.40;11.70;;;;;;;;;;5086358;28;20455;-80
2021/01/20 06:34:08;;;;;;;16.77;11.57;;;;;;;;;;5085996;28;20445;-79
2021/01/20 06:36:36;;;;;;;14.03;11.30;;;;;;;;;;5090175;28;20536;-80
2021/01/20 06:39:22;;;;;;;15.00;10.67;;;;;;;;;;5082000;28;20491;-79
2021/01/20 06:41:49;;;;;;;14.50;10.23;;;;;;;;;;5089565;28;20448;-80
2021/01/20 06:44:15;;;;;;;26.63;13.00;;;;;;;;;;5094520;28;20791;-80
2021/01/20 06:46:58;;;;;;;20.53;12.37;;;;;;;;;;5085433;28;20463;-80
2021/01/20 06:49:25;;;;;;;20.63;12.97;;;;;;;;;;5087929;28;20460;-79
2021/01/20 06:52:16;;;;;;;21.67;13.57;;;;;;;;;;5082505;28;20457;-81
2021/01/20 06:54:43;;;;;;;17.63;12.07;;;;;;;;;;5075413;28;20455;-83
2021/01/20 06:57:28;;;;;;;15.23;11.90;;;;;;;;;;5084819;28;20500;-84
2021/01/20 07:00:13;;;;;;;17.40;11.13;;;;;;;;;;5090596;28;20444;-84
2021/01/20 07:02:54;;;;;;;14.23;11.30;;;;;;;;;;5092226;28;20961;-84
2021/01/20 07:05:31;;;;;;;18.13;11.40;;;;;;;;;;5078908;28;20453;-81
2021/01/20 07:07:58;;;;;;;17.13;11.47;;;;;;;;;;5095770;28;20630;-81
2021/01/20 07:10:25;;;;;;;15.07;10.20;;;;;;;;;;5086479;28;20554;-82
2021/01/20 07:13:10;;;;;;;18.60;13.03;;;;;;;;;;5087804;28;20453;-81
2021/01/20 07:15:37;;;;;;;25.60;13.80;;;;;;;;;;5089479;28;20456;-81
2021/01/20 07:18:05;;;;;;;20.30;12.80;;;;;;;;;;5092606;28;20529;-81
2021/01/20 07:20:33;;;;;;;15.67;12.10;;;;;;;;;;5094213;28;20926;-81
2021/01/20 07:23:00;;;;;;;22.40;13.00;;;;;;;;;;5090736;28;20459;-80
2021/01/20 07:25:27;;;;;;;17.03;11.10;;;;;;;;;;5093992;28;20474;-78
2021/01/20 07:27:53;;;;;;;17.10;10.27;;;;;;;;;;5095160;28;20471;-80
2021/01/20 07:30:20;;;;;;;13.67;10.40;;;;;;;;;;5090603;28;20908;-79
2021/01/20 07:32:47;;;;;;;16.57;10.83;;;;;;;;;;5094989;28;20544;-77
2021/01/20 07:35:17;;;;;;;19.67;11.63;;;;;;;;;;5087619;28;20471;-79
2021/01/20 07:37:45;;;;;;;17.47;11.70;;;;;;;;;;5100370;28;20468;-80
2021/01/20 07:40:13;;;;;;;17.33;12.87;;;;;;;;;;5098066;28;20440;-80
2021/01/20 07:42:40;;;;;;;15.00;11.30;;;;;;;;;;5094269;28;20451;-80
2021/01/20 07:45:07;;;;;;;19.17;12.77;;;;;;;;;;5090198;28;20463;-80
2021/01/20 07:47:44;;;;;;;21.67;12.83;;;;;;;;;;5093836;28;20521;-79
2021/01/20 07:50:12;;;;;;;17.87;13.53;;;;;;;;;;5092930;28;20853;-80
2021/01/20 07:52:38;;;;;;;18.90;13.97;;;;;;;;;;5090478;28;20486;-77
2021/01/20 07:55:15;;;;;;;20.20;14.13;;;;;;;;;;5096335;28;20510;-78
2021/01/20 07:57:42;;;;;;;21.30;12.97;;;;;;;;;;5100045;28;20523;-80
2021/01/20 08:00:11;;;;;;;18.20;10.67;;;;;;;;;;5098709;28;20432;-79
2021/01/20 08:02:46;;;;;;;16.70;11.07;;;;;;;;;;5090627;28;20476;-80
2021/01/20 08:05:13;;;;;;;14.80;11.97;;;;;;;;;;5092801;28;20449;-80
2021/01/20 08:07:39;;;;;;;15.33;10.40;;;;;;;;;;5090154;28;20490;-80
2021/01/20 08:10:34;;;;;;;15.00;11.07;;;;;;;;;;5098126;28;20480;-80
2021/01/20 08:13:03;;;;;;;18.93;12.27;;;;;;;;;;5096899;28;20448;-81
2021/01/20 08:15:31;;;;;;;12.47;9.70;;;;;;;;;;5095516;28;20443;-81
2021/01/20 08:17:58;;;;;;;14.83;9.43;;;;;;;;;;5086287;28;20840;-81
2021/01/20 08:20:25;;;;;;;12.77;10.10;;;;;;;;;;5093145;28;20913;-81
2021/01/20 08:22:53;;;;;;;15.50;10.30;;;;;;;;;;5089746;28;20448;-81
2021/01/20 08:25:22;;;;;;;12.30;9.73;;;;;;;;;;5096179;28;20452;-82
2021/01/20 08:27:49;;;;;;;11.20;8.70;;;;;;;;;;5089706;28;20498;-83
2021/01/20 08:30:33;;;;;;;14.80;11.03;;;;;;;;;;5089011;28;20523;-84
2021/01/20 08:33:00;;;;;;;13.17;10.47;;;;;;;;;;5091599;28;21026;-85
2021/01/20 08:35:28;;;;;;;13.33;9.30;;;;;;;;;;5088709;28;20452;-83
2021/01/20 08:37:55;;;;;;;14.00;9.60;;;;;;;;;;5096477;28;20479;-80
2021/01/20 08:40:22;;;;;;;12.30;8.43;;;;;;;;;;5090290;28;20453;-80
2021/01/20 08:42:48;;;;;;;14.03;10.10;;;;;;;;;;5090392;28;20444;-80
2021/01/20 08:45:16;;;;;;;16.43;9.60;;;;;;;;;;5092330;28;20440;-80
2021/01/20 08:47:45;;;;;;;15.00;11.00;;;;;;;;;;5083614;28;20939;-80
2021/01/20 08:50:11;;;;;;;38.23;10.20;;;;;;;;;;5083860;28;20473;-79
2021/01/20 08:52:42;;;;;;;17.70;9.70;;;;;;;;;;5089193;28;20828;-82
2021/01/20 08:55:09;;;;;;;14.90;10.07;;;;;;;;;;5089220;28;21052;-83
2021/01/20 08:57:42;;;;;;;13.53;8.97;;;;;;;;;;5094526;28;20472;-83
2021/01/20 09:03:59;;;;;;;15.17;10.30;;;;;;;;;;5050710;28;20455;-83
2021/01/20 09:06:27;;;;;;;13.13;9.03;;;;;;;;;;5072472;28;20459;-80
2021/01/20 09:08:54;;;;;;;11.73;8.90;;;;;;;;;;5091265;28;20480;-79
2021/01/20 09:11:21;;;;;;;18.87;9.50;;;;;;;;;;5094069;28;20491;-86
2021/01/20 09:13:50;;;;;;;15.10;9.07;;;;;;;;;;5085124;28;20817;-80
2021/01/20 09:16:16;;;;;;;12.23;8.33;;;;;;;;;;5089868;28;20501;-80
2021/01/20 09:18:43;;;;;;;12.83;7.40;;;;;;;;;;5089667;28;20461;-81
2021/01/20 09:21:09;;;;;;;12.27;9.30;;;;;;;;;;5091182;28;20479;-81
2021/01/20 09:23:37;;;;;;;12.67;9.00;;;;;;;;;;5090453;28;20456;-81
2021/01/20 09:26:03;;;;;;;12.97;9.70;;;;;;;;;;5091685;28;20493;-81
2021/01/20 09:28:30;;;;;;;15.50;9.90;;;;;;;;;;5093361;28;20464;-78
2021/01/20 09:30:57;;;;;;;10.77;8.90;;;;;;;;;;5093677;28;20475;-77
2021/01/20 09:33:23;;;;;;;13.33;9.53;;;;;;;;;;5095543;28;20504;-77
2021/01/20 09:35:50;;;;;;;15.90;10.73;;;;;;;;;;5085796;28;20462;-78
2021/01/20 09:38:18;;;;;;;16.30;11.60;;;;;;;;;;5092161;28;20567;-80
2021/01/20 09:40:45;;;;;;;20.97;14.37;;;;;;;;;;5089350;28;20486;-80
2021/01/20 09:43:12;;;;;;;12.17;8.87;;;;;;;;;;5099463;28;20448;-80
2021/01/20 09:45:39;;;;;;;11.40;9.23;;;;;;;;;;5096467;28;20457;-80
2021/01/20 09:48:06;;;;;;;11.40;9.07;;;;;;;;;;5099917;28;20455;-76
2021/01/20 09:50:34;;;;;;;10.40;8.73;;;;;;;;;;5087766;28;20476;-78
2021/01/20 09:53:01;;;;;;;13.60;8.77;;;;;;;;;;5089599;28;20459;-78
2021/01/20 09:55:27;;;;;;;17.90;9.53;;;;;;;;;;5090538;28;20448;-77
2021/01/20 09:57:55;;;;;;;9.87;7.80;;;;;;;;;;5088599;28;20526;-79
2021/01/20 10:00:22;;;;;;;10.77;8.90;;;;;;;;;;5098349;28;20444;-78
2021/01/20 10:02:48;;;;;;;12.60;9.83;;;;;;;;;;5091928;28;20841;-78
2021/01/20 10:05:15;;;;;;;10.50;8.17;;;;;;;;;;5091204;28;20444;-80
2021/01/20 10:07:43;;;;;;;15.73;9.00;;;;;;;;;;5085142;28;20527;-79
2021/01/20 10:10:11;;;;;;;11.63;9.90;;;;;;;;;;5092008;28;20479;-79
2021/01/20 10:12:41;;;;;;;11.67;8.10;;;;;;;;;;5090765;28;20831;-80
2021/01/20 10:15:12;;;;;;;14.07;8.53;;;;;;;;;;5096349;28;20452;-80
2021/01/20 10:17:40;;;;;;;9.90;8.07;;;;;;;;;;5088398;28;20523;-80
2021/01/20 10:20:07;;;;;;;10.37;8.20;;;;;;;;;;5093491;28;20436;-80
2021/01/20 10:22:39;;;;;;;13.67;8.47;;;;;;;;;;5086878;28;20471;-81
2021/01/20 10:25:05;;;;;;;12.10;8.87;;;;;;;;;;5096540;28;20531;-77
2021/01/20 10:27:33;;;;;;;10.70;7.90;;;;;;;;;;5091208;28;20479;-77
2021/01/20 10:30:00;;;;;;;9.43;7.80;;;;;;;;;;5090783;28;20572;-78
2021/01/20 10:32:27;;;;;;;12.50;8.47;;;;;;;;;;5086796;28;20464;-77
2021/01/20 10:34:54;;;;;;;11.83;10.20;;;;;;;;;;5086331;28;20445;-78
2021/01/20 10:37:21;;;;;;;11.47;7.50;;;;;;;;;;5085719;28;20456;-78
2021/01/20 10:39:47;;;;;;;11.27;8.87;;;;;;;;;;5087283;28;20456;-77
2021/01/20 10:42:14;;;;;;;9.33;7.60;;;;;;;;;;5086448;28;20974;-79
2021/01/20 10:44:40;;;;;;;14.07;8.63;;;;;;;;;;5080422;28;21351;-80
2021/01/20 10:47:07;;;;;;;10.67;9.10;;;;;;;;;;5081721;28;20476;-79
2021/01/20 10:49:36;;;;;;;16.60;9.10;;;;;;;;;;5092279;28;20954;-78
2021/01/20 10:52:02;;;;;;;10.97;8.90;;;;;;;;;;5092067;28;20506;-77
2021/01/20 10:54:29;;;;;;;11.40;8.80;;;;;;;;;;5092881;28;20508;-77
2021/01/20 10:56:55;;;;;;;9.53;7.90;;;;;;;;;;5099975;28;20474;-77
2021/01/20 10:59:22;;;;;;;12.57;9.00;;;;;;;;;;5098533;28;20487;-79
2021/01/20 11:01:48;;;;;;;13.23;8.30;;;;;;;;;;5101181;28;20464;-77
2021/01/20 11:04:16;;;;;;;14.47;10.77;;;;;;;;;;5095920;28;20989;-76
2021/01/20 11:06:43;;;;;;;12.37;8.27;;;;;;;;;;5095447;28;20945;-77
2021/01/20 11:09:10;;;;;;;23.10;9.33;;;;;;;;;;5091539;28;20480;-76
2021/01/20 11:11:36;;;;;;;11.60;9.40;;;;;;;;;;5086881;28;20513;-76
2021/01/20 11:14:03;;;;;;;11.50;7.30;;;;;;;;;;5090808;28;21010;-75
2021/01/20 11:16:29;;;;;;;10.80;8.00;;;;;;;;;;5093369;28;20456;-76
2021/01/20 11:18:56;;;;;;;14.77;8.40;;;;;;;;;;5084438;28;20484;-76
2021/01/20 11:21:23;;;;;;;13.83;8.47;;;;;;;;;;5088779;28;20947;-77
2021/01/20 11:23:50;;;;;;;13.70;7.67;;;;;;;;;;5089468;28;20491;-77
2021/01/20 11:26:18;;;;;;;12.03;7.20;;;;;;;;;;5093603;28;20452;-76
2021/01/20 11:28:44;;;;;;;8.63;6.60;;;;;;;;;;5091832;28;20496;-77
2021/01/20 11:31:11;;;;;;;11.67;7.83;;;;;;;;;;5091880;28;20475;-77
2021/01/20 11:33:38;;;;;;;10.20;6.30;;;;;;;;;;5089298;28;20525;-77
2021/01/20 11:36:05;;;;;;;6.83;6.13;;;;;;;;;;5081633;28;20449;-76
2021/01/20 11:38:31;;;;;;;11.00;6.87;;;;;;;;;;5090645;28;20472;-77
2021/01/20 11:40:59;;;;;;;9.50;7.77;;;;;;;;;;5090161;28;21400;-76
2021/01/20 11:43:25;;;;;;;9.53;7.90;;;;;;;;;;5099583;28;20446;-77
2021/01/20 11:45:52;;;;;;;9.60;7.67;;;;;;;;;;5091661;28;20460;-76
2021/01/20 11:48:19;;;;;;;8.97;7.10;;;;;;;;;;5096164;28;20472;-79
2021/01/20 11:50:47;;;;;;;9.07;7.00;;;;;;;;;;5098158;28;20505;-79
2021/01/20 11:53:13;;;;;;;8.07;6.70;;;;;;;;;;5101430;28;20452;-79
2021/01/20 11:55:40;;;;;;;8.20;6.17;;;;;;;;;;5095422;28;20517;-78
2021/01/20 11:58:07;;;;;;;10.77;7.40;;;;;;;;;;5101845;28;20464;-78
2021/01/20 12:00:35;;;;;;;8.90;7.90;;;;;;;;;;5098318;28;20436;-78
2021/01/20 12:03:08;;;;;;;9.63;6.77;;;;;;;;;;5091094;28;20532;-83
2021/01/20 12:05:37;;;;;;;12.43;6.70;;;;;;;;;;5093805;28;20440;-78
2021/01/20 12:08:03;;;;;;;11.50;6.50;;;;;;;;;;5096441;28;20498;-78
2021/01/20 12:17:09;;;;;;;13.67;6.83;;;;;;;;;;4972439;28;20449;-82
2021/01/20 12:19:41;;;;;;;10.10;6.53;;;;;;;;;;4970964;28;20512;-83
2021/01/20 12:22:08;;;;;;;8.73;5.53;;;;;;;;;;5026256;28;20448;-85
2021/01/20 12:24:35;;;;;;;7.13;5.90;;;;;;;;;;5025845;28;20490;-76
2021/01/20 12:27:02;;;;;;;8.30;5.40;;;;;;;;;;5061363;28;20836;-76
2021/01/20 12:29:29;;;;;;;6.10;5.10;;;;;;;;;;5089693;28;20472;-77
2021/01/20 12:31:55;;;;;;;12.10;5.17;;;;;;;;;;5088708;28;20483;-76
2021/01/20 12:34:22;;;;;;;9.00;5.90;;;;;;;;;;5096717;28;20460;-76
2021/01/20 12:36:49;;;;;;;8.87;5.40;;;;;;;;;;5081493;28;20503;-77
2021/01/20 12:39:16;;;;;;;6.70;5.10;;;;;;;;;;5090826;28;21062;-77
2021/01/20 12:41:43;;;;;;;8.23;5.07;;;;;;;;;;5086846;28;20460;-79
2021/01/20 12:44:10;;;;;;;6.03;5.10;;;;;;;;;;5085748;28;20441;-76
2021/01/20 12:46:38;;;;;;;7.20;5.60;;;;;;;;;;5084933;28;20463;-77
2021/01/20 12:49:05;;;;;;;9.00;6.27;;;;;;;;;;5088821;28;20476;-76
2021/01/20 12:51:31;;;;;;;10.10;6.57;;;;;;;;;;5095153;28;20484;-77
2021/01/20 12:53:59;;;;;;;8.63;6.50;;;;;;;;;;5089673;28;20517;-77
2021/01/20 12:56:26;;;;;;;7.53;5.67;;;;;;;;;;5091241;28;20493;-77
2021/01/20 12:58:52;;;;;;;7.87;6.13;;;;;;;;;;5084626;28;20858;-77
2021/01/20 13:01:19;;;;;;;8.87;5.80;;;;;;;;;;5093479;28;20448;-79
2021/01/20 13:03:45;;;;;;;9.00;6.83;;;;;;;;;;5090102;28;20448;-80
2021/01/20 13:06:12;;;;;;;6.03;4.60;;;;;;;;;;5090312;28;20464;-78
2021/01/20 13:08:39;;;;;;;6.90;5.30;;;;;;;;;;5088349;28;20492;-78
2021/01/20 13:11:06;;;;;;;8.20;5.80;;;;;;;;;;5081576;28;20479;-78
2021/01/20 13:13:33;;;;;;;8.07;5.57;;;;;;;;;;5082446;28;20440;-78
2021/01/20 13:16:00;;;;;;;8.70;6.30;;;;;;;;;;5088012;28;20447;-78
2021/01/20 13:18:26;;;;;;;6.73;5.80;;;;;;;;;;5090304;28;20476;-78
2021/01/20 13:20:53;;;;;;;5.63;4.63;;;;;;;;;;5088454;28;20440;-78
2021/01/20 13:23:19;;;;;;;6.80;5.27;;;;;;;;;;5090765;28;20460;-78
2021/01/20 13:25:46;;;;;;;6.73;5.83;;;;;;;;;;5085402;28;20608;-78
2021/01/20 13:28:13;;;;;;;6.30;5.03;;;;;;;;;;5086174;28;20480;-78
2021/01/20 13:30:40;;;;;;;5.67;4.60;;;;;;;;;;5091996;28;20476;-78
2021/01/20 13:33:06;;;;;;;6.70;5.37;;;;;;;;;;5087403;28;20459;-77
2021/01/20 13:35:33;;;;;;;6.40;5.37;;;;;;;;;;5090677;28;21210;-78
2021/01/20 13:38:00;;;;;;;6.30;4.90;;;;;;;;;;5086892;28;20506;-78
2021/01/20 13:40:26;;;;;;;5.40;4.90;;;;;;;;;;5082773;28;20522;-80
2021/01/20 13:42:53;;;;;;;6.87;5.23;;;;;;;;;;5085076;28;20453;-78
2021/01/20 13:45:22;;;;;;;7.93;5.10;;;;;;;;;;5082845;28;20452;-76
2021/01/20 13:47:48;;;;;;;8.70;5.90;;;;;;;;;;5086543;28;20483;-76
2021/01/20 13:50:15;;;;;;;7.87;5.40;;;;;;;;;;5089287;28;20471;-79
2021/01/20 13:52:42;;;;;;;5.63;5.00;;;;;;;;;;5089682;28;20455;-80
2021/01/20 13:55:09;;;;;;;6.50;5.47;;;;;;;;;;5092350;28;20496;-80
2021/01/20 13:57:35;;;;;;;7.17;6.43;;;;;;;;;;5088231;28;20471;-81
2021/01/20 14:00:03;;;;;;;8.27;6.30;;;;;;;;;;5089635;28;20444;-80
2021/01/20 14:02:31;;;;;;;6.53;5.93;;;;;;;;;;5092635;28;20456;-80
2021/01/20 14:05:05;;;;;;;6.77;5.10;;;;;;;;;;5085556;28;20448;-81
2021/01/20 14:07:32;;;;;;;8.60;6.70;;;;;;;;;;5094986;22;20845;-71
2021/01/20 14:09:58;;;;;;;8.60;6.23;;;;;;;;;;5072672;28;20508;-71
2021/01/20 14:12:25;;;;;;;10.33;8.60;;;;;;;;;;5058835;28;20445;-71
2021/01/20 14:14:51;;;;;;;13.27;7.87;;;;;;;;;;5063807;28;20461;-71
2021/01/20 14:17:18;;;;;;;10.50;8.33;;;;;;;;;;5062914;28;20808;-71
2021/01/20 14:19:46;;;;;;;8.17;6.13;;;;;;;;;;5066529;28;20476;-71
2021/01/20 14:22:13;;;;;;;9.23;5.70;;;;;;;;;;5067731;28;20456;-72
2021/01/20 14:24:39;;;;;;;8.90;6.40;;;;;;;;;;5068852;28;20480;-71
2021/01/20 14:27:06;;;;;;;8.30;6.60;;;;;;;;;;5064889;28;20968;-70
2021/01/20 14:29:33;;;;;;;8.50;6.33;;;;;;;;;;5064921;28;20456;-70
2021/01/20 14:31:59;;;;;;;8.83;6.60;;;;;;;;;;5064964;28;20482;-70
2021/01/20 14:34:26;;;;;;;11.27;8.10;;;;;;;;;;5064824;28;20863;-70
2021/01/20 14:36:55;;;;;;;10.93;7.27;;;;;;;;;;5068849;28;20468;-71
2021/01/20 14:39:22;;;;;;;11.23;7.23;;;;;;;;;;5060210;28;20457;-70
2021/01/20 14:41:48;;;;;;;11.77;8.33;;;;;;;;;;5070218;28;20464;-71
2021/01/20 14:44:15;;;;;;;10.73;7.07;;;;;;;;;;5067996;28;20447;-71
2021/01/20 14:46:43;;;;;;;11.80;8.00;;;;;;;;;;5066865;28;20467;-71
2021/01/20 14:49:10;;;;;;;19.33;7.03;;;;;;;;;;5064037;28;20461;-71
2021/01/20 14:51:37;;;;;;;12.90;7.97;;;;;;;;;;5075008;28;20484;-71